createdAt,value
2023-08-12T00:01:12.934Z,99.90
2023-08-12T00:03:40.100Z,99.90
2023-08-12T00:06:07.394Z,99.90
2023-08-12T00:08:34.576Z,99.90
2023-08-12T00:11:01.700Z,99.90
2023-08-12T00:13:28.815Z,99.90
2023-08-12T00:15:55.959Z,99.90
2023-08-12T00:18:23.953Z,99.90
2023-08-12T00:20:51.606Z,99.90
2023-08-12T00:23:18.899Z,99.90
2023-08-12T00:25:45.949Z,99.90
2023-08-12T00:28:14.061Z,99.90
2023-08-12T00:30:41.237Z,99.90
2023-08-12T00:33:08.428Z,99.90
2023-08-12T00:35:35.491Z,99.90
2023-08-12T00:38:02.631Z,99.90
2023-08-12T00:40:29.754Z,99.90
2023-08-12T00:42:56.827Z,99.90
2023-08-12T00:45:23.868Z,99.90
2023-08-12T00:47:51.092Z,99.90
2023-08-12T00:50:18.288Z,99.90
2023-08-12T00:52:45.908Z,99.90
2023-08-12T00:55:13.152Z,99.90
2023-08-12T00:57:40.348Z,99.90
2023-08-12T01:00:09.270Z,99.90
2023-08-12T01:02:36.762Z,99.90
2023-08-12T01:05:04.132Z,99.90
2023-08-12T01:07:31.378Z,99.90
2023-08-12T01:09:58.405Z,99.90
2023-08-12T01:12:33.292Z,99.90
2023-08-12T01:15:12.150Z,99.90
2023-08-12T01:17:41.697Z,99.90
2023-08-12T01:20:09.888Z,99.90
2023-08-12T01:22:42.287Z,99.90
2023-08-12T01:25:10.436Z,99.90
2023-08-12T01:27:37.998Z,99.90
2023-08-12T01:30:06.940Z,99.90
2023-08-12T01:32:41.272Z,99.90
2023-08-12T01:35:26.395Z,99.90
2023-08-12T01:37:54.841Z,99.90
2023-08-12T01:40:22.610Z,99.90
2023-08-12T01:42:50.854Z,99.90
2023-08-12T01:45:20.170Z,99.90
2023-08-12T01:47:47.601Z,99.90
2023-08-12T01:50:14.679Z,99.90
2023-08-12T01:52:41.744Z,99.90
2023-08-12T01:55:09.347Z,99.90
2023-08-12T01:57:36.511Z,99.90
2023-08-12T02:00:03.908Z,99.90
2023-08-12T02:02:31.172Z,99.90
2023-08-12T02:04:58.381Z,99.90
2023-08-12T02:07:25.528Z,99.90
2023-08-12T02:09:52.590Z,99.90
2023-08-12T02:12:19.817Z,99.90
2023-08-12T02:14:46.938Z,99.90
2023-08-12T02:17:14.389Z,99.90
2023-08-12T02:19:41.625Z,99.90
2023-08-12T02:22:08.826Z,99.90
2023-08-12T02:24:35.845Z,99.90
2023-08-12T02:27:03.016Z,99.90
2023-08-12T02:29:30.051Z,99.90
2023-08-12T02:31:57.196Z,99.90
2023-08-12T02:34:24.354Z,99.90
2023-08-12T02:36:51.458Z,99.90
2023-08-12T02:39:18.613Z,99.90
2023-08-12T02:41:45.721Z,99.90
2023-08-12T02:44:12.912Z,99.90
2023-08-12T02:46:39.996Z,99.90
2023-08-12T02:49:07.002Z,99.90
2023-08-12T02:51:34.197Z,99.90
2023-08-12T02:54:01.329Z,99.90
2023-08-12T02:56:28.562Z,99.90
2023-08-12T02:58:55.686Z,99.90
2023-08-12T03:01:23.206Z,99.90
2023-08-12T03:03:50.308Z,99.90
2023-08-12T03:06:17.716Z,99.90
2023-08-12T03:08:44.878Z,99.90
2023-08-12T03:11:12.008Z,99.90
2023-08-12T03:13:39.074Z,99.90
2023-08-12T03:16:06.292Z,99.90
2023-08-12T03:18:33.518Z,99.90
2023-08-12T03:21:00.607Z,99.90
2023-08-12T03:23:27.796Z,99.90
2023-08-12T03:25:54.832Z,99.90
2023-08-12T03:28:22.074Z,99.90
2023-08-12T03:30:53.640Z,99.90
2023-08-12T03:33:21.089Z,99.90
2023-08-12T03:35:48.845Z,99.90
2023-08-12T03:38:17.107Z,99.90
2023-08-12T03:40:44.356Z,99.90
2023-08-12T03:43:11.656Z,99.90
2023-08-12T03:45:48.614Z,99.90
2023-08-12T03:48:15.674Z,99.90
2023-08-12T03:50:43.653Z,99.90
2023-08-12T03:53:10.890Z,99.90
2023-08-12T03:55:38.019Z,99.90
2023-08-12T03:58:05.444Z,99.90
2023-08-12T04:00:32.643Z,99.90
2023-08-12T04:02:59.953Z,99.90
2023-08-12T04:05:27.485Z,99.90
2023-08-12T04:07:54.626Z,99.90
2023-08-12T04:10:21.897Z,99.90
2023-08-12T04:12:49.143Z,99.90
2023-08-12T04:15:16.690Z,99.90
2023-08-12T04:17:43.963Z,99.90
2023-08-12T04:20:11.862Z,99.90
2023-08-12T04:22:39.033Z,99.90
2023-08-12T04:25:06.818Z,99.90
2023-08-12T04:27:33.975Z,99.90
2023-08-12T04:30:01.121Z,99.90
2023-08-12T04:32:28.312Z,99.90
2023-08-12T04:34:56.499Z,99.90
2023-08-12T04:37:25.418Z,99.90
2023-08-12T04:39:52.613Z,99.90
2023-08-12T04:42:20.016Z,99.90
2023-08-12T04:44:47.279Z,99.90
2023-08-12T04:47:14.956Z,99.90
2023-08-12T04:49:42.190Z,99.90
2023-08-12T04:52:09.634Z,99.90
2023-08-12T04:54:36.820Z,99.90
2023-08-12T04:57:03.920Z,99.90
2023-08-12T04:59:30.994Z,99.90
2023-08-12T05:02:04.887Z,99.90
2023-08-12T05:04:32.618Z,99.90
2023-08-12T05:06:59.686Z,99.90
2023-08-12T05:09:26.728Z,99.90
2023-08-12T05:11:53.850Z,99.90
2023-08-12T05:14:20.919Z,99.90
2023-08-12T05:16:48.200Z,99.90
2023-08-12T05:19:15.236Z,99.90
2023-08-12T05:21:42.465Z,99.90
2023-08-12T05:24:09.726Z,99.90
2023-08-12T05:26:37.007Z,99.90
2023-08-12T05:29:04.186Z,99.90
2023-08-12T05:31:31.397Z,99.90
2023-08-12T05:33:58.508Z,99.90
2023-08-12T05:36:25.590Z,99.90
2023-08-12T05:38:52.693Z,99.90
2023-08-12T05:41:19.828Z,99.90
2023-08-12T05:43:47.113Z,99.90
2023-08-12T05:46:14.177Z,99.90
2023-08-12T05:48:41.389Z,99.90
2023-08-12T05:51:08.460Z,99.90
2023-08-12T05:53:35.759Z,99.90
2023-08-12T05:56:02.867Z,99.90
2023-08-12T05:58:29.944Z,99.90
2023-08-12T06:00:57.083Z,99.90
2023-08-12T06:03:24.321Z,99.90
2023-08-12T06:05:51.415Z,99.90
2023-08-12T06:08:19.683Z,99.90
2023-08-12T06:10:46.773Z,99.90
2023-08-12T06:13:13.961Z,99.90
2023-08-12T06:15:41.149Z,99.90
2023-08-12T06:18:08.428Z,99.90
2023-08-12T06:20:35.520Z,99.90
2023-08-12T06:23:02.928Z,99.90
2023-08-12T06:25:30.026Z,99.90
2023-08-12T06:27:59.621Z,99.90
2023-08-12T06:30:26.783Z,99.90
2023-08-12T06:32:53.994Z,99.90
2023-08-12T06:35:21.158Z,99.90
2023-08-12T06:37:48.387Z,99.90
2023-08-12T06:40:15.817Z,99.90
2023-08-12T06:42:43.087Z,99.90
2023-08-12T06:45:10.824Z,99.90
2023-08-12T06:47:37.988Z,99.90
2023-08-12T06:50:05.418Z,99.90
2023-08-12T06:52:32.611Z,99.90
2023-08-12T06:54:59.900Z,99.90
2023-08-12T06:57:27.119Z,99.90
2023-08-12T06:59:54.366Z,99.90
2023-08-12T07:02:21.471Z,99.90
2023-08-12T07:04:48.710Z,99.90
2023-08-12T07:07:15.940Z,99.90
2023-08-12T07:09:43.124Z,99.90
2023-08-12T07:12:11.152Z,99.90
2023-08-12T07:14:38.604Z,99.90
2023-08-12T07:17:05.676Z,99.90
2023-08-12T07:19:32.851Z,99.90
2023-08-12T07:22:00.121Z,99.90
2023-08-12T07:24:27.191Z,99.90
2023-08-12T07:26:54.255Z,99.90
2023-08-12T07:29:22.012Z,99.90
2023-08-12T07:31:49.434Z,99.90
2023-08-12T07:34:16.529Z,99.90
2023-08-12T07:36:43.628Z,99.90
2023-08-12T07:39:10.953Z,99.90
2023-08-12T07:41:38.771Z,99.90
2023-08-12T07:44:06.605Z,99.90
2023-08-12T07:46:33.822Z,99.90
2023-08-12T07:49:00.977Z,99.90
2023-08-12T07:51:28.077Z,99.90
2023-08-12T07:53:55.254Z,99.90
2023-08-12T07:56:22.314Z,99.90
2023-08-12T07:58:49.499Z,99.90
2023-08-12T08:01:16.633Z,99.90
2023-08-12T08:03:43.909Z,99.90
2023-08-12T08:06:10.947Z,99.90
2023-08-12T08:08:38.006Z,99.90
2023-08-12T08:11:05.285Z,99.90
2023-08-12T08:13:32.456Z,99.90
2023-08-12T08:15:59.623Z,99.90
2023-08-12T08:18:26.898Z,99.90
2023-08-12T08:20:54.334Z,99.90
2023-08-12T08:23:21.484Z,99.90
2023-08-12T08:25:49.171Z,99.90
2023-08-12T08:28:16.230Z,99.90
2023-08-12T08:30:43.427Z,99.90
2023-08-12T08:33:10.691Z,99.90
2023-08-12T08:35:37.908Z,99.90
2023-08-12T08:38:05.641Z,99.90
2023-08-12T08:40:32.933Z,99.90
2023-08-12T08:43:04.999Z,99.90
2023-08-12T08:45:33.832Z,99.90
2023-08-12T08:48:03.949Z,99.90
2023-08-12T08:50:32.209Z,99.90
2023-08-12T08:53:01.088Z,99.90
2023-08-12T08:55:29.521Z,99.90
2023-08-12T09:00:29.434Z,99.90
2023-08-12T09:02:58.474Z,99.90
2023-08-12T09:05:26.873Z,99.90
2023-08-12T09:07:56.037Z,99.90
2023-08-12T09:10:26.391Z,99.90
2023-08-12T09:12:57.207Z,99.90
2023-08-12T09:15:25.267Z,99.90
2023-08-12T09:17:52.714Z,99.90
2023-08-12T09:20:19.914Z,99.90
2023-08-12T09:22:47.104Z,99.60
2023-08-12T09:25:14.271Z,98.00
2023-08-12T09:27:41.498Z,97.90
2023-08-12T09:30:09.828Z,99.20
2023-08-12T09:32:39.652Z,97.50
2023-08-12T09:35:14.296Z,96.90
2023-08-12T09:37:42.388Z,96.90
2023-08-12T09:40:10.385Z,97.30
2023-08-12T09:42:37.493Z,97.00
2023-08-12T09:45:04.896Z,97.00
2023-08-12T09:47:34.906Z,94.90
2023-08-12T09:50:03.101Z,94.60
2023-08-12T09:52:30.186Z,95.20
2023-08-12T09:54:59.195Z,94.10
2023-08-12T09:57:29.404Z,95.70
2023-08-12T09:59:59.031Z,93.20
2023-08-12T10:02:27.289Z,93.60
2023-08-12T10:04:57.699Z,93.20
2023-08-12T10:07:25.163Z,95.50
2023-08-12T10:09:52.367Z,94.70
2023-08-12T10:12:20.845Z,97.90
2023-08-12T10:14:48.876Z,95.80
2023-08-12T10:17:26.347Z,95.60
2023-08-12T10:19:59.196Z,93.90
2023-08-12T10:22:28.059Z,95.00
2023-08-12T10:24:55.291Z,94.60
2023-08-12T10:27:22.479Z,93.60
2023-08-12T10:29:50.356Z,92.90
2023-08-12T10:32:17.687Z,94.90
2023-08-12T10:34:44.789Z,93.70
2023-08-12T10:37:15.105Z,93.60
2023-08-12T10:39:42.369Z,94.20
2023-08-12T10:42:09.568Z,92.90
2023-08-12T10:44:44.377Z,92.60
2023-08-12T10:47:12.492Z,91.10
2023-08-12T10:49:43.724Z,90.50
2023-08-12T10:52:31.749Z,89.60
2023-08-12T10:55:18.772Z,88.60
2023-08-12T10:57:46.443Z,90.10
2023-08-12T11:00:36.446Z,90.10
2023-08-12T11:03:07.774Z,90.70
2023-08-12T11:05:39.134Z,92.00
2023-08-12T11:08:07.533Z,90.70
2023-08-12T11:10:36.421Z,88.70
2023-08-12T11:13:04.809Z,90.20
2023-08-12T11:15:48.794Z,91.00
2023-08-12T11:18:21.654Z,90.80
2023-08-12T11:20:50.149Z,90.70
2023-08-12T11:23:18.334Z,89.90
2023-08-12T11:25:46.501Z,90.20
2023-08-12T11:28:13.661Z,90.60
2023-08-12T11:30:43.872Z,88.90
2023-08-12T11:33:11.627Z,90.20
2023-08-12T11:35:39.456Z,90.90
2023-08-12T11:38:08.361Z,93.30
2023-08-12T11:40:35.572Z,90.80
2023-08-12T11:43:06.849Z,90.10
2023-08-12T11:45:34.636Z,88.20
2023-08-12T11:48:01.840Z,88.50
2023-08-12T11:50:29.056Z,88.50
2023-08-12T11:52:57.618Z,84.50
2023-08-12T11:55:25.814Z,85.00
2023-08-12T11:57:53.598Z,83.10
2023-08-12T12:00:21.343Z,83.10
2023-08-12T12:02:56.223Z,84.10
2023-08-12T12:05:32.451Z,81.50
2023-08-12T12:08:00.945Z,83.20
2023-08-12T12:10:34.457Z,83.30
2023-08-12T12:13:03.842Z,81.90
2023-08-12T12:15:31.276Z,79.10
2023-08-12T12:17:58.391Z,83.40
2023-08-12T12:20:26.733Z,81.70
2023-08-12T12:22:53.817Z,82.10
2023-08-12T12:25:21.030Z,81.90
2023-08-12T12:27:48.931Z,80.70
2023-08-12T12:30:17.985Z,82.60
2023-08-12T12:32:46.501Z,82.10
2023-08-12T12:35:14.027Z,79.80
2023-08-12T12:37:41.358Z,79.00
2023-08-12T12:40:09.293Z,80.00
2023-08-12T12:42:36.333Z,82.00
2023-08-12T12:45:10.224Z,84.00
2023-08-12T12:47:38.920Z,82.60
2023-08-12T12:50:06.480Z,82.80
2023-08-12T12:52:33.551Z,83.10
2023-08-12T12:55:01.803Z,83.30
2023-08-12T12:57:28.929Z,80.40
2023-08-12T12:59:56.107Z,79.90
2023-08-12T13:02:23.261Z,80.10
2023-08-12T13:04:51.184Z,79.50
2023-08-12T13:07:18.640Z,81.30
2023-08-12T13:09:45.799Z,82.50
2023-08-12T13:12:13.203Z,81.80
2023-08-12T13:14:40.401Z,81.40
2023-08-12T13:17:07.506Z,83.20
2023-08-12T13:19:34.780Z,85.60
2023-08-12T13:22:03.530Z,85.10
2023-08-12T13:24:30.632Z,86.60
2023-08-12T13:27:00.018Z,87.40
2023-08-12T13:29:27.696Z,87.30
2023-08-12T13:31:54.829Z,88.30
2023-08-12T13:34:21.878Z,88.50
2023-08-12T13:36:49.040Z,89.50
2023-08-12T13:39:16.817Z,89.40
2023-08-12T13:41:44.902Z,90.00
2023-08-12T13:44:11.934Z,90.60
2023-08-12T13:46:39.093Z,90.90
2023-08-12T13:49:06.799Z,91.60
2023-08-12T13:51:33.899Z,92.20
2023-08-12T13:54:01.044Z,93.10
2023-08-12T13:56:29.614Z,93.80
2023-08-12T13:58:57.827Z,94.90
2023-08-12T14:01:25.272Z,96.00
2023-08-12T14:03:52.445Z,97.40
2023-08-12T14:06:19.969Z,98.60
2023-08-12T14:08:47.185Z,99.90
2023-08-12T14:11:14.283Z,99.90
2023-08-12T14:13:41.368Z,99.90
2023-08-12T14:16:08.501Z,99.90
2023-08-12T14:18:35.614Z,99.90
2023-08-12T14:21:02.643Z,99.90
2023-08-12T14:23:29.846Z,99.90
2023-08-12T14:25:56.994Z,99.90
2023-08-12T14:28:24.317Z,99.90
2023-08-12T14:30:51.432Z,99.90
2023-08-12T14:33:18.620Z,99.90
2023-08-12T14:35:45.680Z,99.90
2023-08-12T14:38:14.022Z,99.90
2023-08-12T14:40:41.161Z,99.90
2023-08-12T14:43:08.406Z,99.90
2023-08-12T14:45:35.579Z,99.90
2023-08-12T14:48:03.301Z,99.90
2023-08-12T14:50:32.718Z,99.90
2023-08-12T14:53:01.196Z,99.90
2023-08-12T14:55:28.199Z,99.90
2023-08-12T14:57:55.313Z,99.90
2023-08-12T15:00:22.481Z,99.90
2023-08-12T15:02:49.727Z,99.90
2023-08-12T15:05:18.052Z,99.90
2023-08-12T15:07:45.474Z,99.90
2023-08-12T15:10:12.653Z,99.90
2023-08-12T15:12:39.767Z,99.90
2023-08-12T15:15:07.245Z,99.90
2023-08-12T15:17:34.591Z,99.90
2023-08-12T15:20:01.704Z,99.90
2023-08-12T15:22:29.203Z,99.90
2023-08-12T15:24:56.319Z,99.90
2023-08-12T15:27:23.477Z,99.90
2023-08-12T15:29:51.571Z,99.90
2023-08-12T15:32:18.771Z,99.90
2023-08-12T15:34:46.077Z,99.90
2023-08-12T15:37:13.984Z,99.90
2023-08-12T15:39:44.915Z,99.90
2023-08-12T15:42:12.021Z,99.90
2023-08-12T15:44:41.660Z,99.90
2023-08-12T15:47:10.206Z,99.90
2023-08-12T15:49:37.340Z,99.90
2023-08-12T15:52:04.730Z,99.90
2023-08-12T15:54:32.040Z,99.90
2023-08-12T15:56:59.345Z,99.90
2023-08-12T15:59:26.396Z,99.90
2023-08-12T16:01:53.539Z,99.90
2023-08-12T16:04:20.693Z,99.90
2023-08-12T16:06:48.035Z,99.90
2023-08-12T16:09:19.222Z,99.90
2023-08-12T16:11:47.019Z,99.90
2023-08-12T16:14:14.218Z,99.90
2023-08-12T16:16:41.441Z,99.90
2023-08-12T16:19:08.724Z,99.90
2023-08-12T16:21:35.811Z,99.90
2023-08-12T16:24:02.902Z,99.90
2023-08-12T16:26:29.997Z,99.90
2023-08-12T16:28:57.141Z,99.90
2023-08-12T16:31:24.958Z,99.90
2023-08-12T16:33:52.026Z,99.90
2023-08-12T16:36:19.332Z,99.90
2023-08-12T16:38:46.382Z,99.90
2023-08-12T16:41:14.003Z,99.90
2023-08-12T16:43:41.119Z,99.90
2023-08-12T16:46:08.248Z,99.90
2023-08-12T16:48:35.376Z,99.90
2023-08-12T16:51:02.815Z,99.90
2023-08-12T16:53:29.953Z,99.90
2023-08-12T16:55:57.406Z,99.90
2023-08-12T16:58:24.650Z,99.90
2023-08-12T17:00:51.787Z,99.90
2023-08-12T17:03:19.083Z,99.90
2023-08-12T17:05:46.274Z,99.90
2023-08-12T17:08:13.423Z,99.90
2023-08-12T17:10:42.241Z,99.90
2023-08-12T17:13:09.485Z,99.90
2023-08-12T17:15:36.951Z,99.90
2023-08-12T17:18:04.437Z,99.90
2023-08-12T17:20:31.649Z,99.90
2023-08-12T17:22:58.870Z,99.90
2023-08-12T17:25:25.928Z,99.90
2023-08-12T17:27:53.175Z,99.90
2023-08-12T17:30:20.492Z,99.90
2023-08-12T17:32:47.753Z,99.90
2023-08-12T17:35:14.990Z,99.90
2023-08-12T17:37:42.167Z,99.90
2023-08-12T17:40:12.037Z,99.90
2023-08-12T17:42:39.390Z,99.90
2023-08-12T17:45:07.174Z,99.90
2023-08-12T17:47:34.460Z,99.90
2023-08-12T17:50:01.616Z,99.90
2023-08-12T17:52:28.702Z,99.90
2023-08-12T17:54:56.049Z,99.90
2023-08-12T17:57:23.101Z,99.90
2023-08-12T17:59:50.250Z,99.90
2023-08-12T18:02:17.400Z,99.90
2023-08-12T18:04:44.590Z,99.90
2023-08-12T18:07:11.726Z,99.90
2023-08-12T18:09:38.883Z,99.90
2023-08-12T18:12:06.362Z,99.90
2023-08-12T18:14:33.559Z,99.90
2023-08-12T18:17:00.697Z,99.90
2023-08-12T18:19:27.937Z,99.90
2023-08-12T18:21:55.027Z,99.90
2023-08-12T18:24:22.250Z,99.90
2023-08-12T18:26:49.257Z,99.90
2023-08-12T18:29:16.376Z,99.90
2023-08-12T18:31:43.523Z,99.90
2023-08-12T18:34:10.688Z,99.90
2023-08-12T18:36:37.703Z,99.90
2023-08-12T18:39:04.993Z,99.90
2023-08-12T18:41:32.087Z,99.90
2023-08-12T18:43:59.342Z,99.90
2023-08-12T18:46:26.477Z,99.90
2023-08-12T18:48:53.618Z,99.90
2023-08-12T18:51:21.544Z,99.90
2023-08-12T18:53:48.669Z,99.90
2023-08-12T18:56:15.717Z,99.90
2023-08-12T18:58:43.419Z,99.90
2023-08-12T19:01:10.534Z,99.90
2023-08-12T19:03:38.061Z,99.90
2023-08-12T19:06:05.312Z,99.90
2023-08-12T19:08:32.413Z,99.90
2023-08-12T19:10:59.704Z,99.90
2023-08-12T19:13:27.774Z,99.90
2023-08-12T19:15:56.728Z,99.90
2023-08-12T19:18:24.865Z,99.90
2023-08-12T19:20:52.376Z,99.90
2023-08-12T19:23:20.816Z,99.90
2023-08-12T19:25:48.490Z,99.90
2023-08-12T19:28:16.918Z,99.90
2023-08-12T19:30:48.779Z,99.90
2023-08-12T19:33:16.342Z,99.90
2023-08-12T19:35:44.286Z,99.90
2023-08-12T19:38:15.307Z,99.90
2023-08-12T19:40:42.954Z,99.90
2023-08-12T19:43:10.723Z,99.90
2023-08-12T19:45:38.434Z,99.90
2023-08-12T19:48:05.856Z,99.90
2023-08-12T19:50:33.790Z,99.90
2023-08-12T19:53:01.513Z,99.90
2023-08-12T19:55:29.491Z,99.90
2023-08-12T19:57:57.108Z,99.90
2023-08-12T20:00:24.744Z,99.90
2023-08-12T20:02:52.163Z,99.90
2023-08-12T20:05:20.932Z,99.90
2023-08-12T20:07:49.935Z,99.90
2023-08-12T20:10:21.351Z,99.90
2023-08-12T20:12:48.982Z,99.90
2023-08-12T20:15:17.528Z,99.90
2023-08-12T20:17:45.524Z,99.90
2023-08-12T20:20:14.379Z,99.90
2023-08-12T20:22:54.607Z,99.90
2023-08-12T20:25:26.953Z,99.90
2023-08-12T20:27:55.051Z,99.90
2023-08-12T20:30:22.165Z,99.90
2023-08-12T20:32:52.694Z,99.90
2023-08-12T20:35:19.844Z,99.90
2023-08-12T20:37:47.294Z,99.90
2023-08-12T20:40:15.077Z,99.90
2023-08-12T20:42:42.263Z,99.90
2023-08-12T20:45:09.888Z,99.90
2023-08-12T20:47:37.727Z,99.90
2023-08-12T20:50:05.366Z,99.90
2023-08-12T20:52:34.548Z,99.90
2023-08-12T20:55:02.237Z,99.90
2023-08-12T20:57:29.586Z,99.90
2023-08-12T20:59:57.350Z,99.90
2023-08-12T21:02:24.879Z,99.90
2023-08-12T21:04:52.228Z,99.90
2023-08-12T21:07:19.959Z,99.90
2023-08-12T21:09:47.173Z,99.90
2023-08-12T21:12:15.210Z,99.90
2023-08-12T21:14:42.639Z,99.90
2023-08-12T21:17:09.719Z,99.90
2023-08-12T21:19:36.862Z,99.90
2023-08-12T21:22:03.926Z,99.90
2023-08-12T21:24:31.108Z,99.90
2023-08-12T21:26:58.195Z,99.90
2023-08-12T21:29:25.358Z,99.90
2023-08-12T21:31:52.791Z,99.90
2023-08-12T21:34:19.903Z,99.90
2023-08-12T21:36:47.051Z,99.90
2023-08-12T21:39:14.688Z,99.90
2023-08-12T21:41:41.834Z,99.90
2023-08-12T21:44:09.323Z,99.90
2023-08-12T21:46:36.442Z,99.90
2023-08-12T21:49:03.637Z,99.90
2023-08-12T21:51:31.232Z,99.90
2023-08-12T21:53:58.325Z,99.90
2023-08-12T21:56:25.494Z,99.90
2023-08-12T21:58:52.659Z,99.90
2023-08-12T22:01:19.838Z,99.90
2023-08-12T22:03:46.946Z,99.90
2023-08-12T22:06:15.287Z,99.90
2023-08-12T22:08:42.381Z,99.90
2023-08-12T22:11:09.562Z,99.90
2023-08-12T22:13:36.682Z,99.90
2023-08-12T22:16:04.777Z,99.90
2023-08-12T22:18:31.947Z,99.90
2023-08-12T22:20:59.084Z,99.90
2023-08-12T22:23:26.179Z,99.90
2023-08-12T22:25:53.255Z,99.90
2023-08-12T22:28:21.300Z,99.90
2023-08-12T22:30:49.071Z,99.90
2023-08-12T22:33:16.696Z,99.90
2023-08-12T22:35:44.077Z,99.90
2023-08-12T22:38:11.257Z,99.90
2023-08-12T22:40:38.409Z,99.90
2023-08-12T22:43:05.960Z,99.90
2023-08-12T22:45:40.147Z,99.90
2023-08-12T22:48:07.435Z,99.90
2023-08-12T22:50:34.552Z,99.90
2023-08-12T22:53:01.791Z,99.90
2023-08-12T22:55:28.870Z,99.90
2023-08-12T22:57:56.086Z,99.90
2023-08-12T23:00:23.282Z,99.90
2023-08-12T23:02:50.646Z,99.90
2023-08-12T23:05:17.875Z,99.90
2023-08-12T23:07:45.005Z,99.90
2023-08-12T23:10:12.492Z,99.90
2023-08-12T23:12:39.578Z,99.90
2023-08-12T23:15:08.205Z,99.90
2023-08-12T23:17:35.673Z,99.90
2023-08-12T23:20:03.341Z,99.90
2023-08-12T23:22:30.601Z,99.90
2023-08-12T23:24:57.877Z,99.90
2023-08-12T23:27:25.019Z,99.90
2023-08-12T23:29:52.145Z,99.90
2023-08-12T23:32:19.268Z,99.90
2023-08-12T23:34:46.502Z,99.90
2023-08-12T23:37:13.743Z,99.90
2023-08-12T23:39:40.924Z,99.90
2023-08-12T23:42:08.072Z,99.90
2023-08-12T23:44:35.243Z,99.90
2023-08-12T23:47:02.531Z,99.90
2023-08-12T23:49:29.670Z,99.90
2023-08-12T23:51:57.052Z,99.90
2023-08-12T23:54:24.174Z,99.90
2023-08-12T23:56:51.359Z,99.90
2023-08-12T23:59:18.579Z,99.90
